MPBO/BOC METAR and TAF weather

Enter ICAO airport designator
Station Type Date Time Source
MPBO METAR 2022/06/27 16:00 UTC NOAA

MPBO 271600Z 27011KT 8000 -RA FEW007 SCT015 OVC080 23/23 Q1015 RWY WET


Station Type Date Time Source
MPBO Decoded METAR 2022/06/27 16:00 UTC NOAA

Bocas Del Toro International, Panama (MPBO) 09-21N 082-15W
Jun 27, 2022 - 12:00 PM EDT / 2022.06.27 1600 UTC
Wind: from the W (270 degrees) at 13 MPH (11 KT):0
Visibility: 4 mile(s):0
Sky conditions: overcast
Weather: light rain
Temperature: 73 F (23 C)
Dew Point: 73 F (23 C)
Relative Humidity: 100%
Pressure (altimeter): 29.97 in. Hg (1015 hPa)
ob: MPBO 271600Z 27011KT 8000 -RA FEW007 SCT015 OVC080 23/23 Q1015 RWY WET
cycle: 16

Station Type Date Time Source
MPBO TAF 2011/07/19 06:30 UTC NOAA

TAF TAF MPBO 190500Z 1906/1918 00000KT 9999 FEW020
BECMG 1912/1916 30004KT 9000 SCT018 BKN100
TEMPO 1916/1918 FEW018CB

Example: see airport list